Time;durP1;ratioP1;P1;durP2;ratioP2;P2;SDS_P1;SDS_P2;PMS_P1;PMS_P2;Temp;Humidity;BMP_temperature;BMP_pressure;BME280_temperature;BME280_humidity;BME280_pressure;Samples;Min_cycle;Max_cycle;Signal;HPM_P1;HPM_P2
2022/07/11 00:02:16;;;;;;;33.03;9.10;;;15.70;99.90;;;;;;5049451;28;20450;-67
2022/07/11 00:04:42;;;;;;;35.78;10.82;;;15.70;99.90;;;;;;5056317;28;20048;-66
2022/07/11 00:07:09;;;;;;;28.63;8.73;;;15.50;99.90;;;;;;5051417;28;20037;-65
2022/07/11 00:09:34;;;;;;;27.25;8.85;;;15.50;99.90;;;;;;5067077;28;20073;-66
2022/07/11 00:12:00;;;;;;;31.58;8.70;;;15.60;99.90;;;;;;5052667;28;20082;-68
2022/07/11 00:14:26;;;;;;;34.85;9.80;;;15.50;99.90;;;;;;5054300;28;20036;-66
2022/07/11 00:16:53;;;;;;;37.95;9.73;;;15.50;99.90;;;;;;5068332;28;20044;-67
2022/07/11 00:19:19;;;;;;;27.60;8.90;;;15.40;99.90;;;;;;5052112;28;20028;-67
2022/07/11 00:21:46;;;;;;;29.48;8.90;;;15.50;99.90;;;;;;5055932;28;20048;-67
2022/07/11 00:24:11;;;;;;;28.23;8.45;;;15.60;99.90;;;;;;5056480;28;20076;-66
2022/07/11 00:26:37;;;;;;;25.33;8.95;;;15.60;99.90;;;;;;5071750;28;20072;-67
2022/07/11 00:29:04;;;;;;;31.67;8.77;;;15.50;99.90;;;;;;5058542;28;20048;-67
2022/07/11 00:31:30;;;;;;;23.85;8.15;;;15.60;99.90;;;;;;5058134;28;20044;-65
2022/07/11 00:33:56;;;;;;;30.52;8.10;;;15.50;99.90;;;;;;5044496;28;20387;-67
2022/07/11 00:36:22;;;;;;;30.38;8.35;;;15.60;99.90;;;;;;5060203;28;20075;-65
2022/07/11 00:38:48;;;;;;;27.00;8.32;;;15.50;99.90;;;;;;5059701;28;20036;-67
2022/07/11 00:41:14;;;;;;;25.40;8.10;;;15.60;99.90;;;;;;5057757;28;20044;-68
2022/07/11 00:43:40;;;;;;;18.17;6.55;;;15.60;99.90;;;;;;5057865;28;20494;-65
2022/07/11 00:46:07;;;;;;;26.00;6.38;;;15.60;99.90;;;;;;5069629;28;20063;-68
2022/07/11 00:48:35;;;;;;;19.20;5.82;;;15.70;99.90;;;;;;5069388;28;20051;-67
2022/07/11 00:51:02;;;;;;;18.35;5.60;;;15.70;99.90;;;;;;5059946;28;20545;-64
2022/07/11 00:53:30;;;;;;;21.08;6.60;;;15.80;99.90;;;;;;5059510;28;20067;-66
2022/07/11 00:55:56;;;;;;;18.58;6.05;;;15.80;99.90;;;;;;5060103;28;20041;-67
2022/07/11 00:58:23;;;;;;;21.75;6.65;;;15.70;99.90;;;;;;5051740;28;20134;-68
2022/07/11 01:00:49;;;;;;;25.15;7.13;;;15.60;99.90;;;;;;5042560;28;20037;-68
2022/07/11 01:03:15;;;;;;;18.27;6.70;;;15.50;99.90;;;;;;5057651;28;20033;-66
2022/07/11 01:05:41;;;;;;;21.95;6.70;;;15.40;99.90;;;;;;5058509;28;20388;-67
2022/07/11 01:08:07;;;;;;;20.33;7.65;;;15.50;99.90;;;;;;5052459;28;20044;-67
2022/07/11 01:10:33;;;;;;;25.27;7.57;;;15.40;99.90;;;;;;5069587;28;20049;-68
2022/07/11 01:12:59;;;;;;;22.00;7.03;;;15.30;99.90;;;;;;5039993;28;20396;-68
2022/07/11 01:15:25;;;;;;;23.88;6.60;;;15.30;99.90;;;;;;5054407;28;20044;-68
2022/07/11 01:17:53;;;;;;;20.85;6.82;;;15.30;99.90;;;;;;5052203;28;20029;-68
2022/07/11 01:20:20;;;;;;;20.10;7.00;;;15.30;99.90;;;;;;5056102;28;20033;-67
2022/07/11 01:22:54;;;;;;;24.17;7.60;;;15.30;99.90;;;;;;5056791;28;20082;-68
2022/07/11 01:25:31;;;;;;;22.42;6.60;;;15.50;99.90;;;;;;5046333;28;20547;-68
2022/07/11 01:28:03;;;;;;;18.33;6.38;;;15.40;99.90;;;;;;5057009;28;20151;-68
2022/07/11 01:30:30;;;;;;;22.20;6.57;;;15.50;99.90;;;;;;5078727;28;20060;-68
2022/07/11 01:32:56;;;;;;;16.67;5.97;;;15.50;99.90;;;;;;5055984;28;20033;-67
2022/07/11 01:35:23;;;;;;;18.55;6.28;;;15.50;99.90;;;;;;5058429;28;20044;-67
2022/07/11 01:37:49;;;;;;;14.95;6.32;;;15.50;99.90;;;;;;5053485;28;20042;-68
2022/07/11 01:40:15;;;;;;;23.63;6.53;;;15.50;99.90;;;;;;5059214;28;20036;-68
2022/07/11 01:42:41;;;;;;;17.73;6.72;;;15.50;99.90;;;;;;5053447;28;20142;-68
2022/07/11 01:45:08;;;;;;;20.05;7.13;;;15.40;99.90;;;;;;5059039;28;20052;-68
2022/07/11 01:47:33;;;;;;;17.95;6.30;;;15.30;99.90;;;;;;5054063;28;20044;-68
2022/07/11 01:49:59;;;;;;;20.27;7.07;;;15.40;99.90;;;;;;5060334;28;20043;-68
2022/07/11 01:52:25;;;;;;;21.48;7.10;;;15.30;99.90;;;;;;5055507;28;20468;-68
2022/07/11 01:54:51;;;;;;;20.63;7.32;;;15.30;99.90;;;;;;5056152;28;20033;-68
2022/07/11 01:57:17;;;;;;;22.58;8.05;;;15.40;99.90;;;;;;5053106;28;20044;-68
2022/07/11 01:59:42;;;;;;;22.27;7.50;;;15.30;99.90;;;;;;5053704;28;20066;-68
2022/07/11 02:02:08;;;;;;;19.45;7.10;;;15.40;99.90;;;;;;5055175;28;20028;-67
2022/07/11 02:04:33;;;;;;;22.13;7.68;;;15.40;99.90;;;;;;5056225;28;20068;-68
2022/07/11 02:06:59;;;;;;;25.58;7.40;;;15.30;99.90;;;;;;5055780;28;20377;-68
2022/07/11 02:09:25;;;;;;;24.92;7.97;;;15.20;99.90;;;;;;5035104;28;20072;-67
2022/07/11 02:11:51;;;;;;;17.73;7.20;;;15.30;99.90;;;;;;5054990;28;20041;-68
2022/07/11 02:14:16;;;;;;;19.65;7.20;;;15.30;99.90;;;;;;5051829;28;20045;-68
2022/07/11 02:16:42;;;;;;;18.48;7.47;;;15.20;99.90;;;;;;5059549;28;20032;-68
2022/07/11 02:19:08;;;;;;;21.70;7.32;;;15.30;99.90;;;;;;5069713;28;20067;-68
2022/07/11 02:21:34;;;;;;;20.60;7.15;;;15.20;99.90;;;;;;5054134;28;20517;-68
2022/07/11 02:24:00;;;;;;;20.52;6.68;;;15.30;99.90;;;;;;5039846;28;20033;-68
2022/07/11 02:26:26;;;;;;;19.92;6.70;;;15.40;99.90;;;;;;5060196;28;20043;-67
2022/07/11 02:28:51;;;;;;;17.33;6.35;;;15.30;99.90;;;;;;5059483;28;20394;-67
2022/07/11 02:31:17;;;;;;;22.92;6.50;;;15.20;99.90;;;;;;5056242;28;20044;-66
2022/07/11 02:33:42;;;;;;;19.85;6.50;;;15.30;99.90;;;;;;5055238;28;20152;-67
2022/07/11 02:36:08;;;;;;;29.85;6.85;;;15.40;99.90;;;;;;5068287;28;20119;-67
2022/07/11 02:38:34;;;;;;;23.75;7.43;;;15.40;99.90;;;;;;5056031;28;20407;-67
2022/07/11 02:41:00;;;;;;;20.63;6.90;;;15.30;99.90;;;;;;5053461;28;20029;-68
2022/07/11 02:43:27;;;;;;;24.40;6.95;;;15.30;99.90;;;;;;5054794;28;20372;-68
2022/07/11 02:45:53;;;;;;;23.98;7.40;;;15.40;99.90;;;;;;5054818;28;20033;-67
2022/07/11 02:48:20;;;;;;;23.73;6.95;;;15.20;99.90;;;;;;5053114;28;20093;-67
2022/07/11 02:50:45;;;;;;;22.73;6.85;;;15.30;99.90;;;;;;5039899;28;20040;-67
2022/07/11 02:53:11;;;;;;;16.80;6.97;;;15.30;99.90;;;;;;5052724;28;20235;-67
2022/07/11 02:55:37;;;;;;;26.92;7.22;;;15.20;99.90;;;;;;5053465;28;20083;-67
2022/07/11 02:58:03;;;;;;;20.83;6.65;;;15.30;99.90;;;;;;5052126;28;20036;-67
2022/07/11 03:00:29;;;;;;;22.42;7.32;;;15.30;99.90;;;;;;5071144;28;20475;-67
2022/07/11 03:02:54;;;;;;;27.48;7.50;;;15.30;99.90;;;;;;5037242;28;20044;-67
2022/07/11 03:05:20;;;;;;;21.05;6.45;;;15.20;99.90;;;;;;5054798;28;20048;-68
2022/07/11 03:07:46;;;;;;;24.20;6.40;;;15.20;99.90;;;;;;5053711;28;20041;-67
2022/07/11 03:10:12;;;;;;;27.42;7.32;;;15.30;99.90;;;;;;5055753;28;20036;-67
2022/07/11 03:12:38;;;;;;;26.20;7.70;;;15.30;99.90;;;;;;5057218;28;20124;-67
2022/07/11 03:15:04;;;;;;;36.90;7.57;;;15.10;99.90;;;;;;5042268;28;20310;-67
2022/07/11 03:17:30;;;;;;;28.60;7.20;;;15.10;99.90;;;;;;5041130;28;20053;-67
2022/07/11 03:19:56;;;;;;;28.60;7.60;;;15.00;99.90;;;;;;5055707;28;20056;-67
2022/07/11 03:22:23;;;;;;;27.77;7.47;;;15.20;99.90;;;;;;5054278;28;20063;-67
2022/07/11 03:24:50;;;;;;;32.03;7.40;;;14.90;99.90;;;;;;5034568;28;20044;-67
2022/07/11 03:27:16;;;;;;;31.33;8.05;;;14.90;99.90;;;;;;5052866;28;20521;-68
2022/07/11 03:29:42;;;;;;;34.72;8.15;;;15.10;99.90;;;;;;5054471;28;20488;-67
2022/07/11 03:32:08;;;;;;;31.13;8.52;;;15.00;99.90;;;;;;5054693;28;20039;-68
2022/07/11 03:34:34;;;;;;;39.28;9.63;;;15.00;99.90;;;;;;5052384;28;20032;-67
2022/07/11 03:37:00;;;;;;;28.98;8.40;;;15.00;99.90;;;;;;5040657;28;20036;-67
2022/07/11 03:39:26;;;;;;;36.95;9.40;;;14.80;99.90;;;;;;5056918;28;20049;-67
2022/07/11 03:41:51;;;;;;;36.30;9.82;;;15.00;99.90;;;;;;5056424;28;20037;-67
2022/07/11 03:44:17;;;;;;;43.55;9.30;;;14.90;99.90;;;;;;5054742;28;20415;-67
2022/07/11 03:46:42;;;;;;;39.53;10.00;;;14.90;99.90;;;;;;5048845;28;20394;-67
2022/07/11 03:49:08;;;;;;;29.27;9.30;;;14.90;99.90;;;;;;5052949;28;20040;-67
2022/07/11 03:51:34;;;;;;;35.97;9.68;;;14.90;99.90;;;;;;5038188;28;20123;-67
2022/07/11 03:54:00;;;;;;;37.30;9.55;;;14.90;99.90;;;;;;5056652;28;20123;-67
2022/07/11 03:56:26;;;;;;;41.30;9.93;;;15.10;99.90;;;;;;5054083;28;20037;-68
2022/07/11 03:58:51;;;;;;;39.92;10.02;;;15.00;99.90;;;;;;5055960;28;20033;-67
2022/07/11 04:01:19;;;;;;;42.78;11.20;;;14.90;99.90;;;;;;5053524;28;20044;-67
2022/07/11 04:03:45;;;;;;;41.38;10.52;;;14.90;99.90;;;;;;5052451;28;20044;-67
2022/07/11 04:06:11;;;;;;;45.63;11.38;;;15.10;99.90;;;;;;5055061;28;20059;-67
2022/07/11 04:08:36;;;;;;;53.90;11.27;;;15.00;99.90;;;;;;5056065;28;20123;-67
2022/07/11 04:11:02;;;;;;;53.75;12.63;;;14.90;99.90;;;;;;5054954;28;20056;-68
2022/07/11 04:13:29;;;;;;;54.55;12.32;;;14.90;99.90;;;;;;5056276;28;20037;-68
2022/07/11 04:15:54;;;;;;;57.60;12.57;;;15.00;99.90;;;;;;5038847;28;20044;-68
2022/07/11 04:18:20;;;;;;;52.70;12.52;;;14.90;99.90;;;;;;5052811;28;20024;-68
2022/07/11 04:20:45;;;;;;;64.55;12.65;;;15.10;99.90;;;;;;5055252;28;20060;-68
2022/07/11 04:23:11;;;;;;;47.63;11.57;;;15.10;99.90;;;;;;5055561;28;20040;-67
2022/07/11 04:25:37;;;;;;;39.15;11.02;;;14.90;99.90;;;;;;5055657;28;20068;-68
2022/07/11 04:28:02;;;;;;;37.67;9.57;;;15.10;99.90;;;;;;5058898;28;20040;-67
2022/07/11 04:30:28;;;;;;;28.05;8.50;;;15.10;99.90;;;;;;5053966;28;20032;-67
2022/07/11 04:32:55;;;;;;;27.38;7.68;;;15.00;99.90;;;;;;5057967;28;20039;-67
2022/07/11 04:35:20;;;;;;;23.70;7.88;;;15.20;99.90;;;;;;5055593;28;20047;-65
2022/07/11 04:37:46;;;;;;;23.63;6.68;;;15.30;99.90;;;;;;5069505;28;20045;-65
2022/07/11 04:40:12;;;;;;;25.95;7.32;;;15.20;99.90;;;;;;5057143;28;20037;-67
2022/07/11 04:42:38;;;;;;;23.10;6.60;;;15.30;99.90;;;;;;5056897;28;20044;-66
2022/07/11 04:45:04;;;;;;;18.10;5.85;;;15.40;99.90;;;;;;5070837;28;20039;-64
2022/07/11 04:47:29;;;;;;;18.85;5.53;;;15.40;99.90;;;;;;5054727;28;20040;-65
2022/07/11 04:49:56;;;;;;;19.70;5.15;;;15.40;99.90;;;;;;5059685;28;20036;-64
2022/07/11 04:52:26;;;;;;;14.90;5.20;;;15.30;99.90;;;;;;5054726;28;20041;-66
2022/07/11 04:54:52;;;;;;;13.55;4.88;;;15.30;99.90;;;;;;5057347;28;20945;-67
2022/07/11 04:57:18;;;;;;;18.85;5.10;;;15.50;99.90;;;;;;5056028;28;20549;-66
2022/07/11 04:59:44;;;;;;;16.02;5.55;;;15.50;99.90;;;;;;5058284;28;20045;-65
2022/07/11 05:02:09;;;;;;;14.77;5.10;;;15.60;99.90;;;;;;5064689;28;20394;-66
2022/07/11 05:04:36;;;;;;;20.35;5.90;;;15.50;99.90;;;;;;5057683;28;20041;-66
2022/07/11 05:07:01;;;;;;;12.65;4.20;;;15.60;99.90;;;;;;5056637;28;20122;-66
2022/07/11 05:09:27;;;;;;;12.60;4.03;;;15.40;99.90;;;;;;5071050;28;20036;-67
2022/07/11 05:11:53;;;;;;;11.75;4.50;;;15.50;99.90;;;;;;5056009;28;20025;-65
2022/07/11 05:14:18;;;;;;;12.18;4.10;;;15.40;99.90;;;;;;5055497;28;20029;-67
2022/07/11 05:16:44;;;;;;;11.88;4.03;;;15.60;99.90;;;;;;5056834;28;20037;-66
2022/07/11 05:19:09;;;;;;;13.45;3.88;;;15.70;99.90;;;;;;5059101;28;20040;-67
2022/07/11 05:21:35;;;;;;;14.45;4.10;;;15.60;99.90;;;;;;5066217;28;20479;-66
2022/07/11 05:24:01;;;;;;;14.93;4.93;;;15.50;99.90;;;;;;5072738;28;20829;-68
2022/07/11 05:26:26;;;;;;;14.55;3.67;;;15.50;99.90;;;;;;5058374;28;20048;-66
2022/07/11 05:28:52;;;;;;;10.18;3.17;;;15.60;99.90;;;;;;5057546;28;20037;-66
2022/07/11 05:31:17;;;;;;;11.98;2.95;;;15.50;99.90;;;;;;5053040;28;20127;-67
2022/07/11 05:33:43;;;;;;;9.75;3.00;;;15.70;99.90;;;;;;5068561;28;20051;-65
2022/07/11 05:36:08;;;;;;;9.07;2.70;;;15.70;99.90;;;;;;5071476;28;20467;-67
2022/07/11 05:38:34;;;;;;;5.00;1.98;;;15.60;99.90;;;;;;5067532;28;20082;-66
2022/07/11 05:40:59;;;;;;;4.95;2.17;;;15.80;99.90;;;;;;5044370;28;20509;-69
2022/07/11 05:43:25;;;;;;;8.38;2.13;;;16.00;99.90;;;;;;5071588;28;20048;-65
2022/07/11 05:45:51;;;;;;;7.05;2.33;;;15.80;99.90;;;;;;5073133;28;20098;-66
2022/07/11 05:48:16;;;;;;;4.95;1.80;;;16.00;99.90;;;;;;5064032;28;20037;-65
2022/07/11 05:50:43;;;;;;;3.47;1.52;;;16.00;99.90;;;;;;5065763;28;20472;-67
2022/07/11 05:53:10;;;;;;;2.70;1.42;;;16.10;99.90;;;;;;5038466;28;20287;-64
2022/07/11 05:55:37;;;;;;;5.75;1.50;;;16.00;99.90;;;;;;5059310;28;20036;-67
2022/07/11 05:58:02;;;;;;;4.50;1.65;;;16.10;99.90;;;;;;5060080;28;20041;-66
2022/07/11 06:00:28;;;;;;;3.00;1.20;;;16.10;99.90;;;;;;5060801;28;20470;-65
2022/07/11 06:02:54;;;;;;;7.57;1.85;;;16.20;99.90;;;;;;5078395;28;20048;-67
2022/07/11 06:05:20;;;;;;;5.20;1.95;;;16.00;99.90;;;;;;5041931;28;20097;-68
2022/07/11 06:10:34;;;;;;;6.65;1.70;;;16.20;99.90;;;;;;5070763;28;20106;-65
2022/07/11 06:13:03;;;;;;;6.13;2.00;;;16.30;99.90;;;;;;5071725;28;20037;-65
2022/07/11 06:15:29;;;;;;;7.72;1.90;;;16.10;99.90;;;;;;5055378;28;20037;-67
2022/07/11 06:17:55;;;;;;;5.63;1.98;;;16.10;99.90;;;;;;5071227;28;20119;-68
2022/07/11 06:20:20;;;;;;;4.63;1.95;;;16.10;99.90;;;;;;5062323;28;20037;-66
2022/07/11 06:22:53;;;;;;;4.85;1.80;;;16.30;99.90;;;;;;5071895;28;20040;-64
2022/07/11 06:25:18;;;;;;;5.88;2.42;;;16.30;99.90;;;;;;5068214;28;20430;-68
2022/07/11 06:27:44;;;;;;;5.25;1.80;;;16.30;99.90;;;;;;5071503;28;20042;-68
2022/07/11 06:30:10;;;;;;;5.63;1.63;;;16.10;99.90;;;;;;5043835;28;20032;-66
2022/07/11 06:32:35;;;;;;;3.55;1.52;;;16.30;99.90;;;;;;5064771;28;20045;-66
2022/07/11 06:35:01;;;;;;;3.00;1.50;;;16.30;99.90;;;;;;5059913;28;20040;-66
2022/07/11 06:37:51;;;;;;;4.28;1.27;;;16.30;99.90;;;;;;5057481;28;20033;-65
2022/07/11 06:40:17;;;;;;;5.57;1.75;;;16.30;99.90;;;;;;5077322;28;20060;-66
2022/07/11 06:42:43;;;;;;;5.40;1.60;;;16.40;99.90;;;;;;5049740;28;20556;-65
2022/07/11 06:45:10;;;;;;;7.18;1.58;;;16.40;99.90;;;;;;5067808;28;20358;-67
2022/07/11 06:47:36;;;;;;;3.45;1.35;;;16.50;99.90;;;;;;5073533;28;20047;-66
2022/07/11 06:50:02;;;;;;;5.05;1.30;;;16.60;99.90;;;;;;5061233;28;20491;-66
2022/07/11 06:52:27;;;;;;;4.78;1.20;;;16.50;99.90;;;;;;5070516;28;20080;-66
2022/07/11 06:54:53;;;;;;;2.45;0.90;;;16.70;99.90;;;;;;5069894;28;20071;-64
2022/07/11 06:57:19;;;;;;;4.50;1.33;;;16.70;99.90;;;;;;5069530;28;20457;-65
2022/07/11 06:59:44;;;;;;;3.55;1.80;;;16.80;99.90;;;;;;5049967;28;20159;-66
2022/07/11 07:02:10;;;;;;;3.08;1.35;;;16.70;99.90;;;;;;5086013;28;20513;-66
2022/07/11 07:04:35;;;;;;;4.30;1.20;;;16.70;99.90;;;;;;5075342;28;20400;-65
2022/07/11 07:07:01;;;;;;;4.10;1.10;;;16.90;99.90;;;;;;5070333;28;20078;-65
2022/07/11 07:09:28;;;;;;;4.28;1.13;;;16.90;99.90;;;;;;5063282;28;20044;-66
2022/07/11 07:11:54;;;;;;;2.78;1.10;;;17.00;99.90;;;;;;5064344;28;20044;-65
2022/07/11 07:14:21;;;;;;;1.90;0.88;;;16.90;99.90;;;;;;5062911;28;20048;-65
2022/07/11 07:16:46;;;;;;;2.25;1.05;;;17.10;99.90;;;;;;5074590;28;20039;-67
2022/07/11 07:19:12;;;;;;;3.30;1.20;;;17.00;99.90;;;;;;5067538;28;20040;-67
2022/07/11 07:21:38;;;;;;;3.40;1.48;;;16.90;99.90;;;;;;5049634;28;20032;-68
2022/07/11 07:24:05;;;;;;;2.72;1.45;;;16.80;99.90;;;;;;5082347;28;20048;-69
2022/07/11 07:26:31;;;;;;;3.35;1.30;;;16.60;99.90;;;;;;5060001;28;20386;-68
2022/07/11 07:28:57;;;;;;;1.75;0.80;;;16.60;99.90;;;;;;5066683;28;20064;-66
2022/07/11 07:31:23;;;;;;;2.33;1.17;;;16.60;99.90;;;;;;5043633;28;20064;-67
2022/07/11 07:33:51;;;;;;;1.60;1.00;;;16.70;99.90;;;;;;5057520;28;20032;-66
2022/07/11 07:36:17;;;;;;;2.08;0.90;;;16.50;99.90;;;;;;5049546;28;20770;-64
2022/07/11 07:38:46;;;;;;;1.20;0.80;;;16.60;99.90;;;;;;5068541;28;20202;-66
2022/07/11 07:41:12;;;;;;;3.45;0.90;;;16.50;99.90;;;;;;5054895;28;20119;-66
2022/07/11 07:43:38;;;;;;;2.33;0.75;;;16.60;99.90;;;;;;5074551;28;20510;-67
2022/07/11 07:46:04;;;;;;;2.42;0.90;;;16.70;99.90;;;;;;5078877;28;20033;-66
2022/07/11 07:48:30;;;;;;;1.60;1.10;;;16.70;99.90;;;;;;5056213;28;20037;-68
2022/07/11 07:50:56;;;;;;;1.50;0.80;;;16.90;99.90;;;;;;5080198;28;20498;-66
2022/07/11 07:53:21;;;;;;;2.63;1.05;;;16.80;99.90;;;;;;5069692;28;20201;-67
2022/07/11 07:55:47;;;;;;;3.40;1.08;;;17.00;99.90;;;;;;5064669;28;20040;-66
2022/07/11 07:58:12;;;;;;;2.40;1.02;;;17.20;99.90;;;;;;5070057;28;20036;-66
2022/07/11 08:03:22;;;;;;;1.75;1.10;;;17.20;99.90;;;;;;5066544;28;20509;-65
2022/07/11 08:05:48;;;;;;;4.05;1.23;;;17.20;99.90;;;;;;5060813;28;20041;-66
2022/07/11 08:08:13;;;;;;;4.45;1.20;;;17.10;99.90;;;;;;5057222;28;20052;-66
2022/07/11 08:10:39;;;;;;;3.53;1.77;;;16.90;99.90;;;;;;5057161;28;20391;-68
2022/07/11 08:13:04;;;;;;;2.22;0.90;;;17.00;99.90;;;;;;5068318;28;20140;-64
2022/07/11 08:15:30;;;;;;;4.10;1.00;;;17.00;99.90;;;;;;5056402;28;20036;-65
2022/07/11 08:17:56;;;;;;;3.22;1.20;;;17.00;99.90;;;;;;5061387;28;20048;-64
2022/07/11 08:20:21;;;;;;;3.50;1.05;;;16.90;99.90;;;;;;5043794;28;20036;-65
2022/07/11 08:22:47;;;;;;;3.40;1.00;;;17.10;99.90;;;;;;5080047;28;20029;-67
2022/07/11 08:25:13;;;;;;;2.25;0.73;;;17.30;99.90;;;;;;5050307;28;20049;-63
2022/07/11 08:27:39;;;;;;;4.25;0.88;;;17.40;99.90;;;;;;5064541;28;20067;-66
2022/07/11 08:30:07;;;;;;;3.53;1.02;;;17.60;99.90;;;;;;5063771;28;20083;-67
2022/07/11 08:32:33;;;;;;;0.82;0.60;;;17.70;99.90;;;;;;5052554;28;20041;-64
2022/07/11 08:34:59;;;;;;;5.30;0.60;;;17.80;99.90;;;;;;5068217;28;20476;-64
2022/07/11 08:37:25;;;;;;;6.03;0.63;;;17.80;99.90;;;;;;5065952;28;20035;-66
2022/07/11 08:39:50;;;;;;;2.17;0.70;;;17.70;99.90;;;;;;5063939;28;20033;-68
2022/07/11 08:42:20;;;;;;;2.42;0.70;;;17.60;99.90;;;;;;5070957;28;20081;-64
2022/07/11 08:44:46;;;;;;;5.30;0.73;;;17.60;99.90;;;;;;5061660;28;20123;-67
2022/07/11 08:47:12;;;;;;;3.28;0.88;;;17.40;99.90;;;;;;5071305;28;20442;-65
2022/07/11 08:49:40;;;;;;;3.22;0.95;;;17.40;99.90;;;;;;5067533;28;20059;-67
2022/07/11 08:52:07;;;;;;;5.30;1.33;;;17.60;99.90;;;;;;5076845;28;20047;-67
2022/07/11 08:54:33;;;;;;;5.38;1.13;;;17.60;99.90;;;;;;5063261;28;20090;-66
2022/07/11 08:57:01;;;;;;;3.45;1.10;;;17.90;99.90;;;;;;5066938;28;20475;-67
2022/07/11 08:59:30;;;;;;;4.03;1.50;;;17.80;99.90;;;;;;5067046;28;20142;-66
2022/07/11 09:02:01;;;;;;;6.85;2.00;;;18.00;99.90;;;;;;5062727;28;20038;-68
2022/07/11 09:04:28;;;;;;;6.45;2.20;;;18.00;99.90;;;;;;5039506;28;20113;-68
2022/07/11 09:06:53;;;;;;;6.80;2.40;;;18.30;99.90;;;;;;5054119;28;20032;-67
2022/07/11 09:09:19;;;;;;;3.40;1.50;;;18.20;99.90;;;;;;5058150;28;20036;-67
2022/07/11 09:12:14;;;;;;;2.00;1.40;;;18.20;99.90;;;;;;5060805;28;20045;-68
2022/07/11 09:14:46;;;;;;;2.65;1.15;;;18.20;99.90;;;;;;5067676;28;20127;-67
2022/07/11 09:17:12;;;;;;;3.60;1.30;;;18.20;99.90;;;;;;5071813;28;20040;-65
2022/07/11 09:19:39;;;;;;;4.20;1.48;;;18.30;99.90;;;;;;5060933;28;20029;-68
2022/07/11 09:28:06;;;;;;;3.80;1.38;;;18.30;99.90;;;;;;5053525;28;20400;-66
2022/07/11 09:30:40;;;;;;;2.22;1.30;;;18.30;99.90;;;;;;5070250;28;20175;-67
2022/07/11 09:33:09;;;;;;;4.20;1.60;;;18.40;99.90;;;;;;5062402;28;20494;-67
2022/07/11 09:35:38;;;;;;;3.80;1.70;;;18.40;99.90;;;;;;5083036;28;20043;-67
2022/07/11 09:38:16;;;;;;;4.72;1.90;;;18.50;99.90;;;;;;5068319;28;20044;-66
2022/07/11 09:40:46;;;;;;;3.28;1.83;;;18.40;99.90;;;;;;5057315;28;20049;-66
2022/07/11 09:43:13;;;;;;;3.58;1.52;;;18.40;99.90;;;;;;5060644;28;20052;-67
2022/07/11 09:45:39;;;;;;;2.25;1.48;;;18.60;99.90;;;;;;5064581;28;20037;-67
2022/07/11 09:48:13;;;;;;;2.53;1.40;;;18.60;99.90;;;;;;5070618;28;20038;-66
2022/07/11 09:50:53;;;;;;;2.70;1.20;;;18.70;99.90;;;;;;5069687;28;20494;-65
2022/07/11 09:53:20;;;;;;;1.67;1.17;;;18.70;99.90;;;;;;5065151;28;20032;-66
2022/07/11 09:55:46;;;;;;;2.50;0.98;;;18.70;99.90;;;;;;5071817;28;20036;-66
2022/07/11 09:58:16;;;;;;;3.10;0.90;;;18.70;99.90;;;;;;5063221;28;20391;-67
2022/07/11 10:00:43;;;;;;;3.33;1.23;;;18.70;99.90;;;;;;5058612;28;20078;-67
2022/07/11 10:03:11;;;;;;;3.17;1.10;;;18.70;99.90;;;;;;5065310;28;20047;-68
2022/07/11 10:05:37;;;;;;;3.58;1.10;;;18.90;99.90;;;;;;5056513;28;21582;-68
2022/07/11 10:08:04;;;;;;;2.20;1.10;;;19.00;99.90;;;;;;5053991;28;20625;-66
2022/07/11 10:10:32;;;;;;;1.35;1.00;;;18.80;99.90;;;;;;5055819;28;20055;-67
2022/07/11 10:12:58;;;;;;;1.35;0.93;;;18.90;99.90;;;;;;5045318;28;20048;-66
2022/07/11 10:15:32;;;;;;;2.88;1.20;;;18.90;99.90;;;;;;5054698;28;20403;-67
2022/07/11 10:18:18;;;;;;;0.95;0.80;;;19.00;99.90;;;;;;5053429;28;20096;-66
2022/07/11 10:21:11;;;;;;;1.33;0.95;;;19.10;99.90;;;;;;5061210;28;20056;-66
2022/07/11 10:23:42;;;;;;;1.85;1.17;;;19.20;99.90;;;;;;5041714;28;20041;-66
2022/07/11 10:26:20;;;;;;;2.60;1.00;;;19.20;99.90;;;;;;5050918;28;20045;-66
2022/07/11 10:28:56;;;;;;;2.35;1.00;;;19.20;99.90;;;;;;5056438;28;20165;-66
2022/07/11 10:31:27;;;;;;;1.63;1.00;;;19.20;99.90;;;;;;5055585;28;20548;-67
2022/07/11 10:34:10;;;;;;;1.20;1.02;;;19.10;99.90;;;;;;5060395;28;20033;-67
2022/07/11 10:36:43;;;;;;;2.40;0.80;;;19.10;99.90;;;;;;5045753;28;20028;-66
2022/07/11 10:39:27;;;;;;;1.20;0.80;;;19.30;99.90;;;;;;5058379;28;20490;-67
2022/07/11 10:41:53;;;;;;;2.25;1.00;;;19.40;99.90;;;;;;5057983;28;20045;-67
2022/07/11 10:44:19;;;;;;;1.27;1.08;;;19.60;99.90;;;;;;5054173;28;20044;-68
2022/07/11 10:46:44;;;;;;;1.08;0.98;;;19.80;99.90;;;;;;5056628;28;20041;-68
2022/07/11 10:49:17;;;;;;;1.00;0.95;;;19.90;99.90;;;;;;5058581;28;20040;-67
2022/07/11 10:51:59;;;;;;;2.80;1.40;;;19.90;99.90;;;;;;5062495;28;20171;-67
2022/07/11 10:54:27;;;;;;;1.30;1.20;;;19.80;99.90;;;;;;5056015;28;20119;-68
2022/07/11 10:57:09;;;;;;;1.52;1.20;;;19.60;99.90;;;;;;5061579;28;20045;-67
2022/07/11 10:59:57;;;;;;;1.98;1.00;;;19.40;99.90;;;;;;5051876;28;20043;-66
2022/07/11 11:02:24;;;;;;;1.50;1.05;;;19.30;99.90;;;;;;5054607;28;20082;-67
2022/07/11 11:05:00;;;;;;;3.05;1.50;;;19.40;99.90;;;;;;5038707;28;20396;-65
2022/07/11 11:07:36;;;;;;;2.67;1.20;;;19.40;99.90;;;;;;5057380;28;20128;-67
2022/07/11 11:10:33;;;;;;;1.48;1.38;;;19.50;99.90;;;;;;5060135;28;20475;-67
2022/07/11 11:13:11;;;;;;;1.45;1.30;;;19.30;99.90;;;;;;5049807;28;20054;-66
2022/07/11 11:15:44;;;;;;;2.55;1.20;;;19.30;99.90;;;;;;5070838;28;20032;-66
2022/07/11 11:18:25;;;;;;;2.58;1.38;;;19.40;99.90;;;;;;5090669;28;20504;-66
2022/07/11 11:21:00;;;;;;;2.03;1.60;;;19.40;99.90;;;;;;5072330;28;20471;-65
2022/07/11 11:23:28;;;;;;;2.90;1.48;;;19.40;99.90;;;;;;5069786;28;20105;-67
2022/07/11 11:25:53;;;;;;;1.50;1.40;;;19.50;99.90;;;;;;5053467;28;20432;-67
2022/07/11 11:28:23;;;;;;;2.60;1.50;;;19.50;99.90;;;;;;5069516;28;20177;-66
2022/07/11 11:31:00;;;;;;;2.47;1.48;;;19.60;99.90;;;;;;5052446;28;20040;-68
2022/07/11 11:33:27;;;;;;;1.95;1.27;;;19.70;99.90;;;;;;5073737;28;20127;-67
2022/07/11 11:36:07;;;;;;;1.30;1.20;;;19.70;99.90;;;;;;5081177;28;20052;-66
2022/07/11 11:38:34;;;;;;;1.42;1.13;;;19.80;99.90;;;;;;5065311;28;20037;-66
2022/07/11 11:41:00;;;;;;;1.70;1.20;;;19.90;99.90;;;;;;5066473;28;20102;-66
2022/07/11 11:43:26;;;;;;;1.77;1.40;;;19.90;99.90;;;;;;5066380;28;20487;-67
2022/07/11 11:45:53;;;;;;;4.50;2.28;;;19.80;99.90;;;;;;5063572;28;20044;-66
2022/07/11 11:48:36;;;;;;;3.28;2.00;;;19.80;99.90;;;;;;5065417;28;20056;-67
2022/07/11 11:51:02;;;;;;;2.20;1.98;;;19.90;99.90;;;;;;5086784;28;20395;-66
2022/07/11 11:53:29;;;;;;;5.78;2.30;;;19.90;99.90;;;;;;5060603;28;20098;-66
2022/07/11 11:55:55;;;;;;;4.40;2.63;;;19.80;99.90;;;;;;5054372;28;20041;-67
2022/07/11 11:58:21;;;;;;;4.60;2.47;;;19.90;99.90;;;;;;5054859;28;20043;-65
2022/07/11 12:00:56;;;;;;;2.90;2.20;;;19.80;99.90;;;;;;5064673;28;20036;-66
2022/07/11 12:03:22;;;;;;;2.95;2.50;;;19.70;99.90;;;;;;5067358;28;20079;-66
2022/07/11 12:05:57;;;;;;;3.78;2.00;;;19.70;99.90;;;;;;5068502;28;20079;-66
2022/07/11 12:08:28;;;;;;;1.85;1.75;;;19.90;99.90;;;;;;5072770;28;20040;-66
2022/07/11 12:10:55;;;;;;;1.98;1.88;;;20.00;99.90;;;;;;5055979;28;20119;-65
2022/07/11 12:13:21;;;;;;;3.00;2.22;;;20.20;99.90;;;;;;5055781;28;20076;-66
2022/07/11 12:18:37;;;;;;;2.30;1.90;;;20.20;99.90;;;;;;5056474;28;20048;-66
2022/07/11 12:21:11;;;;;;;2.65;1.90;;;20.40;99.90;;;;;;5052687;28;20041;-65
2022/07/11 12:23:36;;;;;;;3.10;1.98;;;20.50;99.90;;;;;;5039241;28;20064;-66
2022/07/11 12:26:02;;;;;;;3.38;2.30;;;20.40;99.90;;;;;;5058687;28;20475;-65
2022/07/11 12:28:28;;;;;;;4.38;2.20;;;20.40;99.90;;;;;;5042406;28;20131;-66
2022/07/11 12:30:58;;;;;;;2.15;1.95;;;20.30;99.90;;;;;;5056615;28;20068;-67
2022/07/11 12:33:26;;;;;;;5.43;2.50;;;20.20;99.90;;;;;;5049560;28;20033;-66
2022/07/11 12:35:54;;;;;;;3.72;2.28;;;20.30;99.90;;;;;;5051468;28;20463;-66
2022/07/11 12:38:21;;;;;;;2.25;2.05;;;20.20;99.90;;;;;;5074830;28;20037;-67
2022/07/11 12:41:05;;;;;;;2.53;2.30;;;20.30;99.90;;;;;;5066347;28;20476;-65
2022/07/11 12:46:34;;;;;;;5.07;2.20;;;20.00;99.90;;;;;;5056557;28;20534;-66
2022/07/11 12:49:04;;;;;;;2.58;2.33;;;20.00;99.90;;;;;;5041519;28;20037;-66
2022/07/11 12:51:35;;;;;;;2.53;2.30;;;20.00;99.90;;;;;;5056251;28;20048;-65
2022/07/11 12:54:06;;;;;;;3.20;1.90;;;19.90;99.90;;;;;;5070262;28;20197;-66
2022/07/11 12:56:31;;;;;;;2.63;2.33;;;19.90;99.90;;;;;;5050710;28;20037;-66
2022/07/11 12:58:58;;;;;;;5.57;2.30;;;19.90;99.90;;;;;;5054326;28;20032;-65
2022/07/11 13:01:24;;;;;;;1.60;1.50;;;19.90;99.90;;;;;;5052151;28;20169;-65
2022/07/11 13:03:50;;;;;;;3.30;1.60;;;20.00;99.90;;;;;;5042698;28;20119;-64